sensor_id;sensor_type;location;lat;lon;timestamp;pressure;altitude;pressure_sealevel;temperature;humidity
12178;BME280;6152;48.728;9.256;2023-03-31T00:00:56;96514.59;;;9.76;100.00
12178;BME280;6152;48.728;9.256;2023-03-31T00:03:25;96509.59;;;9.73;100.00
12178;BME280;6152;48.728;9.256;2023-03-31T00:05:58;96508.75;;;9.73;100.00
12178;BME280;6152;48.728;9.256;2023-03-31T00:08:27;96502.13;;;9.69;100.00
12178;BME280;6152;48.728;9.256;2023-03-31T00:10:58;96498.06;;;9.64;100.00
12178;BME280;6152;48.728;9.256;2023-03-31T00:13:28;96499.09;;;9.62;100.00
12178;BME280;6152;48.728;9.256;2023-03-31T00:16:03;96494.00;;;9.60;100.00
12178;BME280;6152;48.728;9.256;2023-03-31T00:18:31;96491.41;;;9.60;100.00
12178;BME280;6152;48.728;9.256;2023-03-31T00:21:11;96481.09;;;9.59;100.00
12178;BME280;6152;48.728;9.256;2023-03-31T00:23:39;96482.16;;;9.56;100.00
12178;BME280;6152;48.728;9.256;2023-03-31T00:26:06;96474.56;;;9.53;100.00
12178;BME280;6152;48.728;9.256;2023-03-31T00:28:32;96456.59;;;9.50;100.00
12178;BME280;6152;48.728;9.256;2023-03-31T00:31:02;96461.59;;;9.53;100.00
12178;BME280;6152;48.728;9.256;2023-03-31T00:33:28;96460.88;;;9.51;100.00
12178;BME280;6152;48.728;9.256;2023-03-31T00:35:55;96457.44;;;9.51;100.00
12178;BME280;6152;48.728;9.256;2023-03-31T00:38:21;96451.28;;;9.52;100.00
12178;BME280;6152;48.728;9.256;2023-03-31T00:40:47;96444.31;;;9.52;100.00
12178;BME280;6152;48.728;9.256;2023-03-31T00:43:31;96447.66;;;9.54;100.00
12178;BME280;6152;48.728;9.256;2023-03-31T00:46:14;96449.72;;;9.62;100.00
12178;BME280;6152;48.728;9.256;2023-03-31T00:48:47;96445.16;;;9.65;100.00
12178;BME280;6152;48.728;9.256;2023-03-31T00:51:16;96444.97;;;9.69;100.00
12178;BME280;6152;48.728;9.256;2023-03-31T00:53:46;96432.69;;;9.71;100.00
12178;BME280;6152;48.728;9.256;2023-03-31T00:56:17;96428.44;;;9.70;100.00
12178;BME280;6152;48.728;9.256;2023-03-31T00:58:44;96425.97;;;9.68;100.00
12178;BME280;6152;48.728;9.256;2023-03-31T01:01:14;96427.81;;;9.66;100.00
12178;BME280;6152;48.728;9.256;2023-03-31T01:03:42;96429.56;;;9.65;100.00
12178;BME280;6152;48.728;9.256;2023-03-31T01:06:12;96433.63;;;9.70;100.00
12178;BME280;6152;48.728;9.256;2023-03-31T01:08:39;96427.50;;;9.71;100.00
12178;BME280;6152;48.728;9.256;2023-03-31T01:11:09;96419.72;;;9.71;100.00
12178;BME280;6152;48.728;9.256;2023-03-31T01:13:38;96421.38;;;9.72;100.00
12178;BME280;6152;48.728;9.256;2023-03-31T01:16:06;96394.66;;;9.70;100.00
12178;BME280;6152;48.728;9.256;2023-03-31T01:18:33;96399.75;;;9.71;100.00
12178;BME280;6152;48.728;9.256;2023-03-31T01:26:55;96379.06;;;9.70;100.00
12178;BME280;6152;48.728;9.256;2023-03-31T01:43:52;96374.06;;;9.79;100.00
12178;BME280;6152;48.728;9.256;2023-03-31T01:51:48;96390.50;;;9.80;100.00
12178;BME280;6152;48.728;9.256;2023-03-31T01:54:22;96395.69;;;9.80;100.00
12178;BME280;6152;48.728;9.256;2023-03-31T01:57:05;96383.66;;;9.79;100.00
12178;BME280;6152;48.728;9.256;2023-03-31T01:59:47;96390.69;;;9.77;100.00
12178;BME280;6152;48.728;9.256;2023-03-31T02:02:24;96391.13;;;9.71;100.00
12178;BME280;6152;48.728;9.256;2023-03-31T02:04:59;96391.56;;;9.64;100.00
12178;BME280;6152;48.728;9.256;2023-03-31T02:07:42;96389.19;;;9.61;100.00
12178;BME280;6152;48.728;9.256;2023-03-31T02:10:11;96390.94;;;9.61;100.00
12178;BME280;6152;48.728;9.256;2023-03-31T02:12:39;96382.31;;;9.60;100.00
12178;BME280;6152;48.728;9.256;2023-03-31T02:15:11;96381.16;;;9.64;100.00
12178;BME280;6152;48.728;9.256;2023-03-31T02:17:40;96375.75;;;9.68;100.00
12178;BME280;6152;48.728;9.256;2023-03-31T02:20:12;96375.53;;;9.71;100.00
12178;BME280;6152;48.728;9.256;2023-03-31T02:22:44;96377.09;;;9.73;100.00
12178;BME280;6152;48.728;9.256;2023-03-31T02:25:14;96370.13;;;9.74;100.00
12178;BME280;6152;48.728;9.256;2023-03-31T02:27:45;96358.91;;;9.73;100.00
12178;BME280;6152;48.728;9.256;2023-03-31T02:30:14;96347.69;;;9.73;100.00
12178;BME280;6152;48.728;9.256;2023-03-31T02:32:42;96347.91;;;9.70;100.00
12178;BME280;6152;48.728;9.256;2023-03-31T02:35:15;96340.00;;;9.71;100.00
12178;BME280;6152;48.728;9.256;2023-03-31T02:37:42;96335.88;;;9.69;100.00
12178;BME280;6152;48.728;9.256;2023-03-31T02:40:21;96329.53;;;9.60;100.00
12178;BME280;6152;48.728;9.256;2023-03-31T02:42:48;96311.78;;;9.54;100.00
12178;BME280;6152;48.728;9.256;2023-03-31T02:45:52;96286.84;;;9.51;100.00
12178;BME280;6152;48.728;9.256;2023-03-31T02:48:20;96271.69;;;9.45;100.00
12178;BME280;6152;48.728;9.256;2023-03-31T02:59:44;96245.44;;;9.37;100.00
12178;BME280;6152;48.728;9.256;2023-03-31T03:02:29;96239.50;;;9.35;100.00
12178;BME280;6152;48.728;9.256;2023-03-31T03:13:25;96193.72;;;9.34;100.00
12178;BME280;6152;48.728;9.256;2023-03-31T03:16:02;96183.44;;;9.33;100.00
12178;BME280;6152;48.728;9.256;2023-03-31T03:18:31;96171.28;;;9.33;100.00
12178;BME280;6152;48.728;9.256;2023-03-31T03:20:57;96174.81;;;9.32;100.00
12178;BME280;6152;48.728;9.256;2023-03-31T03:23:23;96168.06;;;9.30;100.00
12178;BME280;6152;48.728;9.256;2023-03-31T03:25:49;96148.34;;;9.27;100.00
12178;BME280;6152;48.728;9.256;2023-03-31T03:28:16;96144.19;;;9.25;100.00
12178;BME280;6152;48.728;9.256;2023-03-31T03:30:42;96143.78;;;9.18;100.00
12178;BME280;6152;48.728;9.256;2023-03-31T03:33:08;96146.53;;;9.17;100.00
12178;BME280;6152;48.728;9.256;2023-03-31T03:35:34;96142.34;;;9.14;100.00
12178;BME280;6152;48.728;9.256;2023-03-31T03:38:01;96132.81;;;9.14;100.00
12178;BME280;6152;48.728;9.256;2023-03-31T03:40:27;96124.78;;;9.18;100.00
12178;BME280;6152;48.728;9.256;2023-03-31T03:42:53;96127.50;;;9.16;100.00
12178;BME280;6152;48.728;9.256;2023-03-31T03:45:19;96111.22;;;9.14;100.00
12178;BME280;6152;48.728;9.256;2023-03-31T03:47:45;96105.09;;;9.15;100.00
12178;BME280;6152;48.728;9.256;2023-03-31T03:50:11;96103.94;;;9.19;100.00
12178;BME280;6152;48.728;9.256;2023-03-31T03:52:38;96081.50;;;9.18;100.00
12178;BME280;6152;48.728;9.256;2023-03-31T03:55:05;96084.31;;;9.15;100.00
12178;BME280;6152;48.728;9.256;2023-03-31T03:57:31;96086.31;;;9.11;100.00
12178;BME280;6152;48.728;9.256;2023-03-31T03:59:57;96080.19;;;9.12;100.00
12178;BME280;6152;48.728;9.256;2023-03-31T04:02:24;96069.69;;;9.14;100.00
12178;BME280;6152;48.728;9.256;2023-03-31T04:04:50;96058.38;;;9.15;100.00
12178;BME280;6152;48.728;9.256;2023-03-31T04:07:17;96055.78;;;9.15;100.00
12178;BME280;6152;48.728;9.256;2023-03-31T04:09:43;96048.91;;;9.14;100.00
12178;BME280;6152;48.728;9.256;2023-03-31T04:12:09;96048.31;;;9.10;100.00
12178;BME280;6152;48.728;9.256;2023-03-31T04:14:36;96045.78;;;8.98;100.00
12178;BME280;6152;48.728;9.256;2023-03-31T04:17:02;96035.00;;;8.91;100.00
12178;BME280;6152;48.728;9.256;2023-03-31T04:19:28;96014.69;;;8.85;100.00
12178;BME280;6152;48.728;9.256;2023-03-31T04:21:54;95997.56;;;8.83;100.00
12178;BME280;6152;48.728;9.256;2023-03-31T04:24:24;95996.16;;;8.79;100.00
12178;BME280;6152;48.728;9.256;2023-03-31T04:26:56;96002.13;;;8.79;100.00
12178;BME280;6152;48.728;9.256;2023-03-31T04:29:22;95998.84;;;8.77;100.00
12178;BME280;6152;48.728;9.256;2023-03-31T04:31:52;95991.97;;;8.76;100.00
12178;BME280;6152;48.728;9.256;2023-03-31T04:34:19;95990.97;;;8.79;100.00
12178;BME280;6152;48.728;9.256;2023-03-31T04:36:52;95993.66;;;8.77;100.00
12178;BME280;6152;48.728;9.256;2023-03-31T04:39:21;95993.34;;;8.82;100.00
12178;BME280;6152;48.728;9.256;2023-03-31T04:41:59;95994.66;;;8.87;100.00
12178;BME280;6152;48.728;9.256;2023-03-31T04:44:25;95982.97;;;8.82;100.00
12178;BME280;6152;48.728;9.256;2023-03-31T04:46:52;95995.25;;;8.91;100.00
12178;BME280;6152;48.728;9.256;2023-03-31T04:49:18;95982.19;;;8.92;100.00
12178;BME280;6152;48.728;9.256;2023-03-31T04:51:45;95981.13;;;8.95;100.00
12178;BME280;6152;48.728;9.256;2023-03-31T04:54:11;95974.78;;;8.99;100.00
12178;BME280;6152;48.728;9.256;2023-03-31T04:56:37;95955.78;;;8.98;100.00
12178;BME280;6152;48.728;9.256;2023-03-31T04:59:03;95981.41;;;9.03;100.00
12178;BME280;6152;48.728;9.256;2023-03-31T05:01:30;95971.50;;;9.08;100.00
12178;BME280;6152;48.728;9.256;2023-03-31T05:04:01;95968.00;;;9.09;100.00
12178;BME280;6152;48.728;9.256;2023-03-31T05:06:28;95961.97;;;9.08;100.00
12178;BME280;6152;48.728;9.256;2023-03-31T05:08:54;95956.06;;;9.06;100.00
12178;BME280;6152;48.728;9.256;2023-03-31T05:11:20;95956.16;;;9.05;100.00
12178;BME280;6152;48.728;9.256;2023-03-31T05:13:46;95947.69;;;9.03;100.00
12178;BME280;6152;48.728;9.256;2023-03-31T05:16:13;95954.97;;;8.98;100.00
12178;BME280;6152;48.728;9.256;2023-03-31T05:18:40;95969.53;;;8.88;100.00
12178;BME280;6152;48.728;9.256;2023-03-31T05:21:14;95970.41;;;8.76;100.00
12178;BME280;6152;48.728;9.256;2023-03-31T05:23:41;95974.50;;;8.67;100.00
12178;BME280;6152;48.728;9.256;2023-03-31T05:26:08;95987.16;;;8.59;100.00
12178;BME280;6152;48.728;9.256;2023-03-31T05:28:35;96004.69;;;8.55;100.00
12178;BME280;6152;48.728;9.256;2023-03-31T05:31:02;96010.31;;;8.49;100.00
12178;BME280;6152;48.728;9.256;2023-03-31T05:33:29;96003.81;;;8.44;100.00
12178;BME280;6152;48.728;9.256;2023-03-31T05:35:56;96000.59;;;8.40;100.00
12178;BME280;6152;48.728;9.256;2023-03-31T05:38:22;96001.84;;;8.35;100.00
12178;BME280;6152;48.728;9.256;2023-03-31T05:40:48;96003.81;;;8.31;100.00
12178;BME280;6152;48.728;9.256;2023-03-31T05:43:15;95995.63;;;8.25;100.00
12178;BME280;6152;48.728;9.256;2023-03-31T05:45:41;95977.81;;;8.20;100.00
12178;BME280;6152;48.728;9.256;2023-03-31T05:48:07;95984.84;;;8.18;100.00
12178;BME280;6152;48.728;9.256;2023-03-31T05:50:33;95973.03;;;8.14;100.00
12178;BME280;6152;48.728;9.256;2023-03-31T05:52:59;95969.94;;;8.09;100.00
12178;BME280;6152;48.728;9.256;2023-03-31T05:55:26;95957.91;;;8.08;100.00
12178;BME280;6152;48.728;9.256;2023-03-31T05:57:52;95947.34;;;8.11;100.00
12178;BME280;6152;48.728;9.256;2023-03-31T06:00:19;95941.13;;;8.13;100.00
12178;BME280;6152;48.728;9.256;2023-03-31T06:02:45;95931.34;;;8.17;100.00
12178;BME280;6152;48.728;9.256;2023-03-31T06:05:12;95942.25;;;8.22;100.00
12178;BME280;6152;48.728;9.256;2023-03-31T06:07:41;95943.16;;;8.21;100.00
12178;BME280;6152;48.728;9.256;2023-03-31T06:10:10;95914.88;;;8.18;100.00
12178;BME280;6152;48.728;9.256;2023-03-31T06:12:36;95908.56;;;8.22;100.00
12178;BME280;6152;48.728;9.256;2023-03-31T06:15:03;95897.97;;;8.25;100.00
12178;BME280;6152;48.728;9.256;2023-03-31T06:17:29;95900.06;;;8.20;100.00
12178;BME280;6152;48.728;9.256;2023-03-31T06:19:55;95908.56;;;8.22;100.00
12178;BME280;6152;48.728;9.256;2023-03-31T06:22:21;95902.44;;;8.23;100.00
12178;BME280;6152;48.728;9.256;2023-03-31T06:24:47;95890.94;;;8.27;100.00
12178;BME280;6152;48.728;9.256;2023-03-31T06:27:14;95893.81;;;8.35;100.00
12178;BME280;6152;48.728;9.256;2023-03-31T06:29:40;95884.28;;;8.36;100.00
12178;BME280;6152;48.728;9.256;2023-03-31T06:32:06;95884.19;;;8.37;100.00
12178;BME280;6152;48.728;9.256;2023-03-31T06:34:32;95883.00;;;8.41;100.00
12178;BME280;6152;48.728;9.256;2023-03-31T06:36:58;95884.06;;;8.39;100.00
12178;BME280;6152;48.728;9.256;2023-03-31T06:39:25;95891.34;;;8.34;100.00
12178;BME280;6152;48.728;9.256;2023-03-31T06:41:51;95888.84;;;8.32;100.00
12178;BME280;6152;48.728;9.256;2023-03-31T06:44:17;95899.00;;;8.35;100.00
12178;BME280;6152;48.728;9.256;2023-03-31T06:46:44;95910.66;;;8.30;100.00
12178;BME280;6152;48.728;9.256;2023-03-31T06:49:10;95904.81;;;8.26;100.00
12178;BME280;6152;48.728;9.256;2023-03-31T06:51:36;95899.84;;;8.23;100.00
12178;BME280;6152;48.728;9.256;2023-03-31T06:54:05;95911.25;;;8.21;100.00
12178;BME280;6152;48.728;9.256;2023-03-31T06:56:31;95921.00;;;8.17;100.00
12178;BME280;6152;48.728;9.256;2023-03-31T06:59:00;95933.25;;;8.15;100.00
12178;BME280;6152;48.728;9.256;2023-03-31T07:01:26;95943.59;;;8.15;100.00
12178;BME280;6152;48.728;9.256;2023-03-31T07:03:52;95962.44;;;8.17;100.00
12178;BME280;6152;48.728;9.256;2023-03-31T07:06:19;95976.16;;;8.19;100.00
12178;BME280;6152;48.728;9.256;2023-03-31T07:08:45;95979.44;;;8.21;100.00
12178;BME280;6152;48.728;9.256;2023-03-31T07:11:11;96001.63;;;8.25;100.00
12178;BME280;6152;48.728;9.256;2023-03-31T07:13:37;95999.97;;;8.24;100.00
12178;BME280;6152;48.728;9.256;2023-03-31T07:16:03;95983.31;;;8.28;100.00
12178;BME280;6152;48.728;9.256;2023-03-31T07:18:29;95947.75;;;8.30;100.00
12178;BME280;6152;48.728;9.256;2023-03-31T07:20:59;95911.25;;;8.33;100.00
12178;BME280;6152;48.728;9.256;2023-03-31T07:23:26;95933.66;;;8.34;100.00
12178;BME280;6152;48.728;9.256;2023-03-31T07:25:52;95908.94;;;8.41;100.00
12178;BME280;6152;48.728;9.256;2023-03-31T07:28:18;95834.59;;;8.42;100.00
12178;BME280;6152;48.728;9.256;2023-03-31T07:30:44;95851.81;;;8.43;100.00
12178;BME280;6152;48.728;9.256;2023-03-31T07:33:11;95893.19;;;8.44;100.00
12178;BME280;6152;48.728;9.256;2023-03-31T07:35:38;95898.47;;;8.43;100.00
12178;BME280;6152;48.728;9.256;2023-03-31T07:38:04;95902.81;;;8.42;100.00
12178;BME280;6152;48.728;9.256;2023-03-31T07:40:31;95904.69;;;8.40;100.00
12178;BME280;6152;48.728;9.256;2023-03-31T07:42:57;95900.44;;;8.39;100.00
12178;BME280;6152;48.728;9.256;2023-03-31T07:45:25;95897.38;;;8.34;100.00
12178;BME280;6152;48.728;9.256;2023-03-31T07:47:52;95897.38;;;8.34;100.00
12178;BME280;6152;48.728;9.256;2023-03-31T07:50:19;95892.66;;;8.39;100.00
12178;BME280;6152;48.728;9.256;2023-03-31T07:52:45;95887.31;;;8.53;100.00
12178;BME280;6152;48.728;9.256;2023-03-31T07:55:12;95882.28;;;8.63;100.00
12178;BME280;6152;48.728;9.256;2023-03-31T07:57:38;95877.03;;;8.76;100.00
12178;BME280;6152;48.728;9.256;2023-03-31T08:00:06;95872.13;;;8.84;100.00
12178;BME280;6152;48.728;9.256;2023-03-31T08:02:33;95879.25;;;8.93;100.00
12178;BME280;6152;48.728;9.256;2023-03-31T08:04:59;95877.81;;;9.00;100.00
12178;BME280;6152;48.728;9.256;2023-03-31T08:07:25;95872.91;;;9.08;100.00
12178;BME280;6152;48.728;9.256;2023-03-31T08:09:55;95876.44;;;9.07;100.00
12178;BME280;6152;48.728;9.256;2023-03-31T08:12:21;95869.56;;;8.95;100.00
12178;BME280;6152;48.728;9.256;2023-03-31T08:14:47;95870.50;;;8.94;100.00
12178;BME280;6152;48.728;9.256;2023-03-31T08:17:14;95859.66;;;9.00;100.00
12178;BME280;6152;48.728;9.256;2023-03-31T08:19:40;95855.69;;;9.18;100.00
12178;BME280;6152;48.728;9.256;2023-03-31T08:22:06;95842.28;;;9.35;100.00
12178;BME280;6152;48.728;9.256;2023-03-31T08:24:32;95853.84;;;9.53;100.00
12178;BME280;6152;48.728;9.256;2023-03-31T08:26:58;95857.28;;;9.76;100.00
12178;BME280;6152;48.728;9.256;2023-03-31T08:29:24;95850.53;;;9.96;100.00
12178;BME280;6152;48.728;9.256;2023-03-31T08:31:50;95843.06;;;10.13;100.00
12178;BME280;6152;48.728;9.256;2023-03-31T08:34:16;95850.47;;;10.40;100.00
12178;BME280;6152;48.728;9.256;2023-03-31T08:36:42;95842.72;;;10.61;100.00
12178;BME280;6152;48.728;9.256;2023-03-31T08:39:08;95841.03;;;10.92;100.00
12178;BME280;6152;48.728;9.256;2023-03-31T08:41:52;95840.53;;;11.19;100.00
12178;BME280;6152;48.728;9.256;2023-03-31T08:44:30;95845.25;;;11.55;100.00
12178;BME280;6152;48.728;9.256;2023-03-31T08:47:00;95841.84;;;11.85;100.00
12178;BME280;6152;48.728;9.256;2023-03-31T08:49:32;95843.88;;;12.21;100.00
12178;BME280;6152;48.728;9.256;2023-03-31T08:52:06;95844.34;;;12.84;100.00
12178;BME280;6152;48.728;9.256;2023-03-31T08:54:47;95840.69;;;13.61;100.00
12178;BME280;6152;48.728;9.256;2023-03-31T08:57:25;95836.19;;;15.16;100.00
12178;BME280;6152;48.728;9.256;2023-03-31T08:59:53;95834.50;;;16.68;100.00
12178;BME280;6152;48.728;9.256;2023-03-31T09:02:42;95827.88;;;18.71;87.27
12178;BME280;6152;48.728;9.256;2023-03-31T09:05:18;95833.66;;;19.87;74.01
12178;BME280;6152;48.728;9.256;2023-03-31T09:18:26;95786.22;;;20.08;58.04
12178;BME280;6152;48.728;9.256;2023-03-31T09:21:11;95798.09;;;20.84;55.97
12178;BME280;6152;48.728;9.256;2023-03-31T09:26:39;95783.00;;;20.78;54.93
12178;BME280;6152;48.728;9.256;2023-03-31T09:29:54;95779.91;;;20.95;54.10
12178;BME280;6152;48.728;9.256;2023-03-31T09:35:25;95774.28;;;20.27;51.44
12178;BME280;6152;48.728;9.256;2023-03-31T09:37:52;95783.50;;;19.20;53.58
12178;BME280;6152;48.728;9.256;2023-03-31T09:40:21;95785.00;;;18.54;58.27
12178;BME280;6152;48.728;9.256;2023-03-31T09:43:02;95791.75;;;17.55;62.98
12178;BME280;6152;48.728;9.256;2023-03-31T09:45:29;95778.44;;;16.43;73.16
12178;BME280;6152;48.728;9.256;2023-03-31T09:48:11;95791.91;;;15.56;86.47
12178;BME280;6152;48.728;9.256;2023-03-31T09:50:45;95777.25;;;15.80;80.92
12178;BME280;6152;48.728;9.256;2023-03-31T09:56:04;95772.13;;;16.78;72.99
12178;BME280;6152;48.728;9.256;2023-03-31T09:58:30;95759.09;;;17.33;61.27
12178;BME280;6152;48.728;9.256;2023-03-31T10:01:10;95769.69;;;18.19;55.36
12178;BME280;6152;48.728;9.256;2023-03-31T10:03:51;95749.75;;;18.93;53.13
12178;BME280;6152;48.728;9.256;2023-03-31T10:06:19;95755.06;;;20.33;48.15
12178;BME280;6152;48.728;9.256;2023-03-31T10:09:02;95740.13;;;21.59;45.40
12178;BME280;6152;48.728;9.256;2023-03-31T10:11:28;95735.72;;;22.68;43.01
12178;BME280;6152;48.728;9.256;2023-03-31T10:14:04;95727.97;;;23.78;38.99
12178;BME280;6152;48.728;9.256;2023-03-31T10:16:50;95714.03;;;23.89;38.07
12178;BME280;6152;48.728;9.256;2023-03-31T10:20:16;95712.13;;;25.16;36.02
12178;BME280;6152;48.728;9.256;2023-03-31T10:24:44;95707.00;;;24.07;34.96
12178;BME280;6152;48.728;9.256;2023-03-31T10:27:25;95693.28;;;23.33;36.50
12178;BME280;6152;48.728;9.256;2023-03-31T10:30:00;95698.91;;;23.83;35.20
12178;BME280;6152;48.728;9.256;2023-03-31T10:32:31;95692.84;;;23.62;35.41
12178;BME280;6152;48.728;9.256;2023-03-31T10:35:04;95685.31;;;23.33;36.03
12178;BME280;6152;48.728;9.256;2023-03-31T10:37:32;95670.28;;;23.91;33.79
12178;BME280;6152;48.728;9.256;2023-03-31T10:40:04;95668.53;;;24.54;33.05
12178;BME280;6152;48.728;9.256;2023-03-31T10:42:37;95687.88;;;25.24;32.45
12178;BME280;6152;48.728;9.256;2023-03-31T10:45:12;95671.50;;;25.02;32.39
12178;BME280;6152;48.728;9.256;2023-03-31T10:47:40;95657.66;;;23.74;33.28
12178;BME280;6152;48.728;9.256;2023-03-31T10:50:13;95665.81;;;22.08;36.30
12178;BME280;6152;48.728;9.256;2023-03-31T10:52:46;95643.66;;;21.06;38.64
12178;BME280;6152;48.728;9.256;2023-03-31T10:55:20;95664.34;;;20.11;39.65
12178;BME280;6152;48.728;9.256;2023-03-31T10:57:56;95657.72;;;19.64;39.85
12178;BME280;6152;48.728;9.256;2023-03-31T11:00:45;95662.63;;;19.09;40.12
12178;BME280;6152;48.728;9.256;2023-03-31T11:03:22;95670.47;;;19.46;39.46
12178;BME280;6152;48.728;9.256;2023-03-31T11:06:21;95653.06;;;19.23;41.13
12178;BME280;6152;48.728;9.256;2023-03-31T11:16:50;95630.94;;;17.27;46.60
12178;BME280;6152;48.728;9.256;2023-03-31T11:27:54;95736.50;;;12.93;100.00
12178;BME280;6152;48.728;9.256;2023-03-31T11:30:41;95817.16;;;10.87;100.00
12178;BME280;6152;48.728;9.256;2023-03-31T11:36:50;95825.25;;;9.09;100.00
12178;BME280;6152;48.728;9.256;2023-03-31T11:39:35;95797.50;;;8.52;100.00
12178;BME280;6152;48.728;9.256;2023-03-31T11:42:57;95826.34;;;8.24;100.00
12178;BME280;6152;48.728;9.256;2023-03-31T11:45:44;95834.00;;;8.02;100.00
12178;BME280;6152;48.728;9.256;2023-03-31T11:47:53;95822.66;;;7.92;100.00
12178;BME280;6152;48.728;9.256;2023-03-31T11:50:28;95829.91;;;7.87;100.00
12178;BME280;6152;48.728;9.256;2023-03-31T11:53:01;95810.44;;;7.81;100.00
12178;BME280;6152;48.728;9.256;2023-03-31T11:55:29;95808.47;;;7.85;100.00
12178;BME280;6152;48.728;9.256;2023-03-31T12:00:39;95800.66;;;8.21;100.00
12178;BME280;6152;48.728;9.256;2023-03-31T12:03:12;95795.22;;;8.72;100.00
12178;BME280;6152;48.728;9.256;2023-03-31T12:05:52;95793.88;;;9.68;100.00
12178;BME280;6152;48.728;9.256;2023-03-31T12:08:27;95787.41;;;11.51;100.00
12178;BME280;6152;48.728;9.256;2023-03-31T12:11:01;95791.38;;;13.39;100.00
12178;BME280;6152;48.728;9.256;2023-03-31T12:16:23;95765.72;;;17.13;87.39
12178;BME280;6152;48.728;9.256;2023-03-31T12:19:21;95742.59;;;17.72;81.99
12178;BME280;6152;48.728;9.256;2023-03-31T12:22:21;95753.75;;;16.12;89.29
12178;BME280;6152;48.728;9.256;2023-03-31T12:24:45;95765.22;;;16.11;85.31
12178;BME280;6152;48.728;9.256;2023-03-31T12:27:23;95765.44;;;15.24;87.59
12178;BME280;6152;48.728;9.256;2023-03-31T12:30:05;95765.22;;;16.03;91.12
12178;BME280;6152;48.728;9.256;2023-03-31T12:32:45;95753.78;;;16.20;83.42
12178;BME280;6152;48.728;9.256;2023-03-31T12:35:25;95746.59;;;16.46;76.28
12178;BME280;6152;48.728;9.256;2023-03-31T12:48:38;95694.28;;;14.59;91.60
12178;BME280;6152;48.728;9.256;2023-03-31T12:56:19;95685.94;;;13.58;98.74
12178;BME280;6152;48.728;9.256;2023-03-31T12:58:46;95677.13;;;13.32;100.00
12178;BME280;6152;48.728;9.256;2023-03-31T13:04:16;95693.78;;;13.76;99.73
12178;BME280;6152;48.728;9.256;2023-03-31T13:06:54;95683.59;;;13.82;93.11
12178;BME280;6152;48.728;9.256;2023-03-31T13:10:22;95690.97;;;13.87;95.82
12178;BME280;6152;48.728;9.256;2023-03-31T13:12:24;95690.50;;;13.74;96.12
12178;BME280;6152;48.728;9.256;2023-03-31T13:14:54;95693.13;;;13.74;94.55
12178;BME280;6152;48.728;9.256;2023-03-31T13:17:32;95700.50;;;13.60;97.44
12178;BME280;6152;48.728;9.256;2023-03-31T13:20:25;95682.41;;;13.49;96.29
12178;BME280;6152;48.728;9.256;2023-03-31T13:23:27;95688.41;;;13.32;98.61
12178;BME280;6152;48.728;9.256;2023-03-31T13:25:57;95677.13;;;12.76;100.00
12178;BME280;6152;48.728;9.256;2023-03-31T13:28:43;95689.84;;;12.42;100.00
12178;BME280;6152;48.728;9.256;2023-03-31T13:31:13;95686.56;;;12.01;100.00
12178;BME280;6152;48.728;9.256;2023-03-31T13:33:44;95701.72;;;11.68;100.00
12178;BME280;6152;48.728;9.256;2023-03-31T13:45:22;95738.09;;;10.57;100.00
12178;BME280;6152;48.728;9.256;2023-03-31T13:48:10;95758.56;;;10.30;100.00
12178;BME280;6152;48.728;9.256;2023-03-31T13:59:10;95730.84;;;8.77;100.00
12178;BME280;6152;48.728;9.256;2023-03-31T14:07:43;95677.16;;;8.33;100.00
12178;BME280;6152;48.728;9.256;2023-03-31T14:13:02;95669.31;;;8.22;100.00
12178;BME280;6152;48.728;9.256;2023-03-31T14:15:29;95666.03;;;8.54;100.00
12178;BME280;6152;48.728;9.256;2023-03-31T14:17:55;95665.53;;;8.83;100.00
12178;BME280;6152;48.728;9.256;2023-03-31T14:20:27;95673.81;;;9.10;100.00
12178;BME280;6152;48.728;9.256;2023-03-31T14:23:02;95664.81;;;9.25;100.00
12178;BME280;6152;48.728;9.256;2023-03-31T14:25:52;95661.97;;;9.39;100.00
12178;BME280;6152;48.728;9.256;2023-03-31T14:28:33;95673.03;;;9.52;100.00
12178;BME280;6152;48.728;9.256;2023-03-31T14:31:15;95675.63;;;9.52;100.00
12178;BME280;6152;48.728;9.256;2023-03-31T14:34:08;95678.69;;;9.57;100.00
12178;BME280;6152;48.728;9.256;2023-03-31T14:36:48;95676.19;;;9.56;100.00
12178;BME280;6152;48.728;9.256;2023-03-31T14:39:20;95679.25;;;9.61;100.00
12178;BME280;6152;48.728;9.256;2023-03-31T14:41:55;95682.59;;;9.84;100.00
12178;BME280;6152;48.728;9.256;2023-03-31T14:44:25;95671.03;;;10.20;100.00
12178;BME280;6152;48.728;9.256;2023-03-31T14:46:51;95687.78;;;10.47;100.00
12178;BME280;6152;48.728;9.256;2023-03-31T14:49:25;95678.44;;;10.65;100.00
12178;BME280;6152;48.728;9.256;2023-03-31T14:51:54;95686.44;;;10.74;100.00
12178;BME280;6152;48.728;9.256;2023-03-31T14:54:21;95691.63;;;10.74;100.00
12178;BME280;6152;48.728;9.256;2023-03-31T14:56:51;95683.50;;;10.88;100.00
12178;BME280;6152;48.728;9.256;2023-03-31T14:59:25;95674.50;;;11.01;100.00
12178;BME280;6152;48.728;9.256;2023-03-31T15:01:53;95667.63;;;10.91;100.00
12178;BME280;6152;48.728;9.256;2023-03-31T15:04:23;95664.75;;;10.94;100.00
12178;BME280;6152;48.728;9.256;2023-03-31T15:06:51;95657.59;;;11.17;100.00
12178;BME280;6152;48.728;9.256;2023-03-31T15:09:23;95656.06;;;11.14;100.00
12178;BME280;6152;48.728;9.256;2023-03-31T15:12:00;95649.09;;;11.24;100.00
12178;BME280;6152;48.728;9.256;2023-03-31T15:14:29;95650.50;;;11.38;100.00
12178;BME280;6152;48.728;9.256;2023-03-31T15:16:59;95640.91;;;11.38;100.00
12178;BME280;6152;48.728;9.256;2023-03-31T15:19:32;95633.22;;;11.27;100.00
12178;BME280;6152;48.728;9.256;2023-03-31T15:22:15;95632.41;;;11.36;100.00
12178;BME280;6152;48.728;9.256;2023-03-31T15:24:44;95626.66;;;11.42;100.00
12178;BME280;6152;48.728;9.256;2023-03-31T15:27:37;95634.06;;;11.37;100.00
12178;BME280;6152;48.728;9.256;2023-03-31T15:30:12;95642.00;;;11.36;100.00
12178;BME280;6152;48.728;9.256;2023-03-31T15:32:40;95639.28;;;11.37;100.00
12178;BME280;6152;48.728;9.256;2023-03-31T15:35:10;95642.25;;;11.23;100.00
12178;BME280;6152;48.728;9.256;2023-03-31T15:37:43;95646.09;;;11.19;100.00
12178;BME280;6152;48.728;9.256;2023-03-31T15:40:24;95637.31;;;11.20;100.00
12178;BME280;6152;48.728;9.256;2023-03-31T15:43:16;95645.50;;;11.06;100.00
12178;BME280;6152;48.728;9.256;2023-03-31T15:45:52;95646.00;;;11.00;100.00
12178;BME280;6152;48.728;9.256;2023-03-31T15:48:29;95652.31;;;10.97;100.00